Time;durP1;ratioP1;P1;durP2;ratioP2;P2;SDS_P1;SDS_P2;PMS_P1;PMS_P2;Temp;Humidity;BMP_temperature;BMP_pressure;BME280_temperature;BME280_humidity;BME280_pressure;Samples;Min_cycle;Max_cycle;Signal;HPM_P1;HPM_P2
2021/01/06 00:01:47;;;;;;;18.97;8.50;;;;;;;;;;4709281;30;20232;-79
2021/01/06 00:04:15;;;;;;;15.77;8.97;;;;;;;;;;4705247;30;20197;-78
2021/01/06 00:06:44;;;;;;;17.60;9.13;;;;;;;;;;4689644;30;20205;-79
2021/01/06 00:09:12;;;;;;;15.60;9.20;;;;;;;;;;4685174;30;20606;-78
2021/01/06 00:11:41;;;;;;;17.57;8.97;;;;;;;;;;4671038;30;20209;-78
2021/01/06 00:17:14;;;;;;;15.33;9.20;;;;;;;;;;4876785;24;20244;-79
2021/01/06 00:19:43;;;;;;;18.67;9.30;;;;;;;;;;4702200;30;20274;-78
2021/01/06 00:33:27;;;;;;;16.37;9.27;;;;;;;;;;4668102;30;20252;-79
2021/01/06 00:35:57;;;;;;;18.07;9.57;;;;;;;;;;4668401;30;20214;-79
2021/01/06 00:38:28;;;;;;;17.73;9.20;;;;;;;;;;4654033;30;20217;-79
2021/01/06 00:40:57;;;;;;;18.53;9.40;;;;;;;;;;4668732;30;20221;-79
2021/01/06 00:57:43;;;;;;;15.70;9.33;;;;;;;;;;4701707;30;20221;-77
2021/01/06 01:00:16;;;;;;;16.33;8.73;;;;;;;;;;4703721;30;20204;-79
2021/01/06 01:06:50;;;;;;;17.43;9.37;;;;;;;;;;5011866;24;20245;-80
2021/01/06 01:09:20;;;;;;;14.33;8.43;;;;;;;;;;4692495;30;20205;-78
2021/01/06 01:11:48;;;;;;;15.40;9.00;;;;;;;;;;4699599;30;20219;-78
2021/01/06 01:14:18;;;;;;;19.33;8.97;;;;;;;;;;4666914;30;20317;-78
2021/01/06 01:16:49;;;;;;;16.50;9.27;;;;;;;;;;4666626;30;20227;-79
2021/01/06 01:19:18;;;;;;;17.97;9.13;;;;;;;;;;4681243;30;20674;-79
2021/01/06 01:21:47;;;;;;;16.67;8.63;;;;;;;;;;4652993;30;20599;-79
2021/01/06 01:24:16;;;;;;;17.47;8.33;;;;;;;;;;4666554;30;20218;-79
2021/01/06 01:26:45;;;;;;;14.93;7.83;;;;;;;;;;4666720;30;20217;-79
2021/01/06 01:29:13;;;;;;;17.20;8.23;;;;;;;;;;4652461;30;20220;-78
2021/01/06 01:31:45;;;;;;;17.70;8.07;;;;;;;;;;4666614;30;20217;-79
2021/01/06 01:34:16;;;;;;;17.77;9.37;;;;;;;;;;4666405;30;20232;-79
2021/01/06 01:36:49;;;;;;;17.83;9.17;;;;;;;;;;4666514;30;20592;-78
2021/01/06 01:39:18;;;;;;;15.23;8.50;;;;;;;;;;4666278;30;20247;-79
2021/01/06 01:41:47;;;;;;;14.23;8.77;;;;;;;;;;4668525;30;20609;-79
2021/01/06 01:44:16;;;;;;;17.27;8.60;;;;;;;;;;4666739;30;20217;-79
2021/01/06 01:46:54;;;;;;;15.67;8.33;;;;;;;;;;4652054;30;20221;-78
2021/01/06 01:50:06;;;;;;;16.67;9.00;;;;;;;;;;4666584;30;20229;-79
2021/01/06 01:52:41;;;;;;;17.07;8.97;;;;;;;;;;4666076;30;20229;-79
2021/01/06 01:55:12;;;;;;;15.30;8.60;;;;;;;;;;4666090;30;20220;-78
2021/01/06 01:57:43;;;;;;;15.97;9.40;;;;;;;;;;4666018;30;20226;-78
2021/01/06 02:00:14;;;;;;;15.07;9.23;;;;;;;;;;4652851;30;20304;-78
2021/01/06 02:05:57;;;;;;;16.30;8.97;;;;;;;;;;5460102;24;20241;-79
2021/01/06 02:09:16;;;;;;;17.30;8.73;;;;;;;;;;4670716;30;20216;-79
2021/01/06 02:11:47;;;;;;;17.07;9.80;;;;;;;;;;4685984;30;20226;-78
2021/01/06 02:14:18;;;;;;;19.77;9.30;;;;;;;;;;4678798;30;20207;-79
2021/01/06 02:16:51;;;;;;;18.87;9.40;;;;;;;;;;4697221;30;20200;-79
2021/01/06 02:19:22;;;;;;;17.93;9.93;;;;;;;;;;4682862;30;20208;-79
2021/01/06 02:21:52;;;;;;;13.57;8.53;;;;;;;;;;4667198;30;20238;-78
2021/01/06 02:24:21;;;;;;;18.77;10.17;;;;;;;;;;4654637;30;20221;-78
2021/01/06 02:26:50;;;;;;;16.70;8.63;;;;;;;;;;4684249;30;20662;-79
2021/01/06 02:29:19;;;;;;;17.90;10.17;;;;;;;;;;4684149;30;20221;-79
2021/01/06 02:31:48;;;;;;;17.17;9.37;;;;;;;;;;4682122;30;20214;-79
2021/01/06 02:34:17;;;;;;;17.83;9.30;;;;;;;;;;4679973;30;20213;-79
2021/01/06 02:37:20;;;;;;;16.23;9.40;;;;;;;;;;4679704;30;20220;-78
2021/01/06 02:39:50;;;;;;;17.73;9.57;;;;;;;;;;4679332;30;20217;-79
2021/01/06 02:45:47;;;;;;;15.40;9.23;;;;;;;;;;5287279;24;20626;-79
2021/01/06 02:48:17;;;;;;;18.33;9.93;;;;;;;;;;4682548;30;20299;-79
2021/01/06 02:50:52;;;;;;;17.97;10.30;;;;;;;;;;4682473;30;20225;-79
2021/01/06 02:53:23;;;;;;;18.17;9.90;;;;;;;;;;4668032;30;20716;-79
2021/01/06 02:55:53;;;;;;;16.73;8.87;;;;;;;;;;4682110;30;20221;-79
2021/01/06 02:58:23;;;;;;;18.63;9.93;;;;;;;;;;4696160;30;20205;-79
2021/01/06 03:00:53;;;;;;;16.80;8.80;;;;;;;;;;4682960;30;20212;-79
2021/01/06 03:07:40;;;;;;;16.80;9.07;;;;;;;;;;4784029;24;20252;-78
2021/01/06 03:10:11;;;;;;;20.00;9.43;;;;;;;;;;4699470;30;20217;-78
2021/01/06 03:27:56;;;;;;;19.30;9.97;;;;;;;;;;4769561;30;20217;-78
2021/01/06 03:30:28;;;;;;;17.03;9.77;;;;;;;;;;4755193;30;20224;-79
2021/01/06 03:33:03;;;;;;;17.97;9.87;;;;;;;;;;4746048;30;20665;-78
2021/01/06 03:35:34;;;;;;;17.97;10.00;;;;;;;;;;4737730;30;20589;-78
2021/01/06 03:38:11;;;;;;;17.30;9.63;;;;;;;;;;4751604;30;20218;-78
2021/01/06 03:40:41;;;;;;;19.43;10.87;;;;;;;;;;4722877;30;20205;-79
2021/01/06 03:57:32;;;;;;;18.60;9.33;;;;;;;;;;4846476;24;20250;-78
2021/01/06 04:00:00;;;;;;;17.90;9.97;;;;;;;;;;4770471;30;20233;-79
2021/01/06 04:05:39;;;;;;;18.77;10.03;;;;;;;;;;4784583;24;20711;-80
2021/01/06 04:08:09;;;;;;;17.57;9.80;;;;;;;;;;4771883;30;20228;-80
2021/01/06 04:10:41;;;;;;;19.07;9.37;;;;;;;;;;4787308;30;20217;-80
2021/01/06 04:22:43;;;;;;;19.70;9.27;;;;;;;;;;5493706;24;20611;-79
2021/01/06 04:25:19;;;;;;;17.07;9.63;;;;;;;;;;4781664;30;20220;-79
2021/01/06 04:27:48;;;;;;;18.97;10.23;;;;;;;;;;4772545;30;20204;-79
2021/01/06 04:30:24;;;;;;;16.90;9.53;;;;;;;;;;4775927;30;20209;-79
2021/01/06 04:39:28;;;;;;;17.77;9.20;;;;;;;;;;4843060;24;20248;-79
2021/01/06 04:45:46;;;;;;;19.93;10.53;;;;;;;;;;5599158;24;20241;-79
2021/01/06 04:48:25;;;;;;;20.20;9.80;;;;;;;;;;4774944;30;20212;-79
2021/01/06 04:51:20;;;;;;;18.30;9.40;;;;;;;;;;4798929;29;20211;-79
2021/01/06 05:06:43;;;;;;;19.17;9.83;;;;;;;;;;4902012;24;20246;-80
2021/01/06 05:09:19;;;;;;;17.50;10.20;;;;;;;;;;4753963;30;20229;-77
2021/01/06 05:11:55;;;;;;;20.03;10.73;;;;;;;;;;4725166;30;20206;-79
2021/01/06 05:14:29;;;;;;;19.97;9.47;;;;;;;;;;4721707;30;20206;-78
2021/01/06 05:16:58;;;;;;;20.67;10.40;;;;;;;;;;4722371;30;20203;-77
2021/01/06 05:19:29;;;;;;;20.03;10.10;;;;;;;;;;4708010;30;20671;-78
2021/01/06 05:22:00;;;;;;;18.00;10.30;;;;;;;;;;4737435;30;20723;-78
2021/01/06 05:24:34;;;;;;;20.03;10.93;;;;;;;;;;4707499;30;20231;-78
2021/01/06 05:27:17;;;;;;;25.07;11.80;;;;;;;;;;4736241;30;20218;-78
2021/01/06 05:29:48;;;;;;;19.57;11.17;;;;;;;;;;4722179;30;20590;-78
2021/01/06 05:32:57;;;;;;;23.00;11.43;;;;;;;;;;4721324;30;20231;-78
2021/01/06 05:35:29;;;;;;;23.00;12.53;;;;;;;;;;4721646;30;20686;-78
2021/01/06 05:38:01;;;;;;;20.70;11.77;;;;;;;;;;4735247;30;20223;-77
2021/01/06 05:40:31;;;;;;;24.93;12.63;;;;;;;;;;4707495;30;20670;-78
2021/01/06 05:43:02;;;;;;;21.57;11.57;;;;;;;;;;4729532;30;20230;-78
2021/01/06 05:45:39;;;;;;;21.40;11.20;;;;;;;;;;4738891;30;20223;-78
2021/01/06 05:48:17;;;;;;;25.80;11.87;;;;;;;;;;4752686;30;20214;-78
2021/01/06 05:50:52;;;;;;;24.40;12.50;;;;;;;;;;4767875;30;20201;-78
2021/01/06 06:13:09;;;;;;;26.57;13.13;;;;;;;;;;5766977;24;21299;31
2021/01/06 06:15:50;;;;;;;24.67;12.63;;;;;;;;;;4735681;30;20227;-78
2021/01/06 06:18:58;;;;;;;25.97;12.93;;;;;;;;;;4750099;30;20222;-79
2021/01/06 06:21:35;;;;;;;26.67;13.97;;;;;;;;;;4716976;30;20577;-79
2021/01/06 06:33:38;;;;;;;25.00;12.43;;;;;;;;;;5553793;24;20278;-78
2021/01/06 06:36:17;;;;;;;25.87;12.77;;;;;;;;;;4758812;30;20684;-80
2021/01/06 06:38:47;;;;;;;26.13;12.87;;;;;;;;;;4779560;30;20215;-80
2021/01/06 07:01:22;;;;;;;25.57;13.20;;;;;;;;;;5790191;24;21290;-78
2021/01/06 07:03:59;;;;;;;28.03;13.70;;;;;;;;;;4742144;30;20233;-79
2021/01/06 07:06:30;;;;;;;25.40;13.53;;;;;;;;;;4758758;30;20225;-77
2021/01/06 07:09:00;;;;;;;27.07;13.07;;;;;;;;;;4768271;30;20230;-78
2021/01/06 07:15:27;;;;;;;45.83;14.53;;;;;;;;;;4752234;30;20220;-79
2021/01/06 07:17:56;;;;;;;29.63;13.80;;;;;;;;;;4753142;30;20217;-78
2021/01/06 07:20:41;;;;;;;26.57;14.40;;;;;;;;;;4761813;30;20225;-79
2021/01/06 07:23:31;;;;;;;24.77;13.77;;;;;;;;;;4766599;30;20234;-79
2021/01/06 07:26:06;;;;;;;24.77;12.83;;;;;;;;;;4782002;30;20210;-79
2021/01/06 07:28:37;;;;;;;30.10;14.23;;;;;;;;;;4755436;30;20220;-79
2021/01/06 07:31:11;;;;;;;27.77;13.90;;;;;;;;;;4756251;30;20217;-79
2021/01/06 07:43:22;;;;;;;26.67;13.73;;;;;;;;;;5555238;24;21149;-81
2021/01/06 07:46:14;;;;;;;29.13;13.83;;;;;;;;;;4773340;30;20718;-80
2021/01/06 07:49:05;;;;;;;26.60;13.47;;;;;;;;;;4773401;30;20212;-80
2021/01/06 07:51:51;;;;;;;32.23;14.97;;;;;;;;;;4773954;30;20201;-80
2021/01/06 07:54:29;;;;;;;27.53;14.20;;;;;;;;;;4746440;30;20571;-80
2021/01/06 07:57:10;;;;;;;27.90;14.10;;;;;;;;;;4757671;30;20218;-80
2021/01/06 07:59:52;;;;;;;27.20;14.07;;;;;;;;;;4774359;30;20218;-80
2021/01/06 08:35:33;;;;;;;27.03;13.70;;;;;;;;;;4937484;24;20240;-80
2021/01/06 08:38:25;;;;;;;29.47;14.83;;;;;;;;;;4761151;30;20223;-80
2021/01/06 08:40:57;;;;;;;29.77;14.67;;;;;;;;;;4776239;30;20676;-80
2021/01/06 08:43:37;;;;;;;26.97;13.87;;;;;;;;;;4748818;30;20236;-81
2021/01/06 09:02:22;;;;;;;27.90;12.95;;;;;;;;;;5793689;24;20189;31
2021/01/06 09:04:53;;;;;;;29.20;13.63;;;;;;;;;;4768458;30;20473;-81
2021/01/06 09:07:26;;;;;;;21.30;12.07;;;;;;;;;;4755155;30;20213;-81
2021/01/06 09:10:18;;;;;;;29.40;13.80;;;;;;;;;;4770003;30;20577;-81
2021/01/06 09:12:58;;;;;;;25.83;13.33;;;;;;;;;;4767637;30;20730;-81
2021/01/06 09:15:41;;;;;;;26.20;13.20;;;;;;;;;;4776556;30;20216;-81
2021/01/06 09:18:17;;;;;;;26.40;12.90;;;;;;;;;;4770894;30;20213;-81
2021/01/06 14:43:37;;;;;;;17.37;8.90;;;;;;;;;;4787901;27;20227;-81
2021/01/06 14:50:53;;;;;;;18.63;8.83;;;;;;;;;;4749966;30;20222;-82
2021/01/06 15:01:52;;;;;;;16.87;8.47;;;;;;;;;;4744443;30;20694;-81
2021/01/06 15:18:00;;;;;;;15.93;9.20;;;;;;;;;;4750131;30;20229;-81
2021/01/06 15:20:34;;;;;;;18.43;9.50;;;;;;;;;;4723301;30;20214;-80
2021/01/06 15:23:10;;;;;;;20.83;9.30;;;;;;;;;;4735107;30;20230;-82
2021/01/06 15:25:49;;;;;;;17.90;9.80;;;;;;;;;;4747390;30;20245;-81
2021/01/06 15:28:22;;;;;;;18.53;9.80;;;;;;;;;;4734814;30;20214;-80
2021/01/06 15:31:01;;;;;;;21.77;9.70;;;;;;;;;;4747859;30;20213;-81
2021/01/06 15:33:39;;;;;;;21.83;9.33;;;;;;;;;;4734025;30;20245;-83
2021/01/06 15:36:16;;;;;;;20.47;9.97;;;;;;;;;;4761409;30;20206;-81
2021/01/06 15:38:50;;;;;;;19.47;9.73;;;;;;;;;;4751282;30;20222;-81
2021/01/06 15:41:30;;;;;;;20.00;10.30;;;;;;;;;;4750748;30;20220;-81
2021/01/06 15:44:04;;;;;;;23.07;11.27;;;;;;;;;;4724063;30;20247;-80
2021/01/06 15:46:39;;;;;;;19.73;9.37;;;;;;;;;;4723758;30;20234;-83
2021/01/06 15:49:21;;;;;;;19.23;9.43;;;;;;;;;;4739905;30;20206;-82
2021/01/06 15:51:57;;;;;;;20.43;9.90;;;;;;;;;;4731152;30;20217;-81
2021/01/06 15:54:33;;;;;;;20.67;10.87;;;;;;;;;;4719824;30;20237;-82
2021/01/06 15:57:13;;;;;;;18.47;9.80;;;;;;;;;;4737782;30;20588;-82
2021/01/06 15:59:56;;;;;;;21.57;9.80;;;;;;;;;;4739807;30;20221;-82
2021/01/06 16:02:31;;;;;;;18.33;10.60;;;;;;;;;;4722484;30;20231;-81
2021/01/06 16:05:04;;;;;;;20.93;10.70;;;;;;;;;;4737717;30;20222;-82
2021/01/06 16:07:37;;;;;;;19.10;9.57;;;;;;;;;;4751414;30;20216;-81
2021/01/06 16:10:17;;;;;;;21.83;10.47;;;;;;;;;;4727046;30;20225;-82
2021/01/06 16:12:53;;;;;;;18.20;9.80;;;;;;;;;;4721362;30;20241;-81
2021/01/06 16:15:31;;;;;;;21.63;9.90;;;;;;;;;;4739344;30;20222;-81
2021/01/06 16:18:07;;;;;;;18.27;9.93;;;;;;;;;;4723631;30;20221;-81
2021/01/06 16:20:41;;;;;;;17.87;9.40;;;;;;;;;;4740085;30;20213;-80
2021/01/06 16:23:25;;;;;;;20.63;9.77;;;;;;;;;;4742077;30;20242;-81
2021/01/06 16:26:07;;;;;;;19.03;9.90;;;;;;;;;;4727180;30;20229;-81
2021/01/06 16:28:47;;;;;;;19.37;10.37;;;;;;;;;;4755916;30;20214;-81
2021/01/06 16:31:35;;;;;;;20.63;9.27;;;;;;;;;;4737023;30;20225;-81
2021/01/06 16:34:23;;;;;;;19.43;9.80;;;;;;;;;;4739986;30;20234;-81
2021/01/06 16:37:03;;;;;;;19.33;10.17;;;;;;;;;;4713612;30;20223;-81
2021/01/06 16:39:38;;;;;;;19.73;9.83;;;;;;;;;;4717821;30;20215;-80
2021/01/06 16:42:18;;;;;;;19.57;9.63;;;;;;;;;;4752108;30;20252;-81
2021/01/06 16:47:56;;;;;;;15.90;8.63;;;;;;;;;;4721579;30;20221;-81
2021/01/06 16:50:41;;;;;;;18.50;9.00;;;;;;;;;;4715908;30;20215;-80
2021/01/06 16:53:18;;;;;;;17.50;8.93;;;;;;;;;;4717016;30;20241;-82
2021/01/06 16:55:55;;;;;;;19.40;9.03;;;;;;;;;;4731371;30;20206;-81
2021/01/06 16:58:33;;;;;;;17.07;8.73;;;;;;;;;;4770965;30;20214;-80
2021/01/06 17:01:14;;;;;;;17.27;8.93;;;;;;;;;;4745987;30;20228;-81
2021/01/06 17:03:56;;;;;;;17.40;9.20;;;;;;;;;;4773847;30;20227;-81
2021/01/06 17:06:36;;;;;;;18.97;9.53;;;;;;;;;;4755328;30;20232;-80
2021/01/06 17:09:15;;;;;;;18.73;8.93;;;;;;;;;;4745385;30;20190;-81
2021/01/06 17:11:58;;;;;;;16.73;9.50;;;;;;;;;;4749980;30;20221;-81
2021/01/06 17:14:31;;;;;;;15.23;8.47;;;;;;;;;;4731293;30;20575;-81
2021/01/06 17:17:13;;;;;;;17.27;8.53;;;;;;;;;;4739125;30;20210;-80
2021/01/06 17:19:46;;;;;;;16.50;8.77;;;;;;;;;;4717604;30;20214;-81
2021/01/06 17:22:23;;;;;;;16.07;8.07;;;;;;;;;;4739209;30;20245;-81
2021/01/06 17:25:00;;;;;;;18.23;8.80;;;;;;;;;;4736869;30;20210;-80
2021/01/06 17:27:32;;;;;;;16.17;8.37;;;;;;;;;;4723011;30;20245;-81
2021/01/06 17:30:12;;;;;;;19.73;9.40;;;;;;;;;;4724455;30;20209;-81
2021/01/06 17:32:46;;;;;;;17.83;9.07;;;;;;;;;;4738338;30;20234;-81
2021/01/06 17:35:21;;;;;;;18.33;8.87;;;;;;;;;;4726431;30;20201;-81
2021/01/06 17:37:59;;;;;;;17.70;9.10;;;;;;;;;;4756345;30;20202;-82
2021/01/06 17:40:31;;;;;;;16.87;8.47;;;;;;;;;;4749355;30;20210;-82
2021/01/06 17:43:05;;;;;;;19.20;9.97;;;;;;;;;;4711002;30;20611;-82
2021/01/06 17:46:02;;;;;;;18.17;9.33;;;;;;;;;;5057788;28;20619;-81
2021/01/06 17:48:35;;;;;;;17.63;8.97;;;;;;;;;;5049513;28;20203;-80
2021/01/06 17:51:11;;;;;;;20.00;11.03;;;;;;;;;;5011421;28;20187;-80
2021/01/06 17:53:43;;;;;;;19.27;9.60;;;;;;;;;;5029809;28;20212;-80
2021/01/06 17:56:15;;;;;;;18.43;9.40;;;;;;;;;;5018016;28;20574;-80
2021/01/06 17:58:48;;;;;;;18.40;9.43;;;;;;;;;;5032619;28;20212;-82
2021/01/06 18:01:24;;;;;;;17.87;9.67;;;;;;;;;;5037651;28;20199;-81
2021/01/06 18:04:02;;;;;;;18.17;9.20;;;;;;;;;;5017089;28;20223;-81
2021/01/06 18:06:35;;;;;;;20.23;10.10;;;;;;;;;;5026367;28;20207;-82
2021/01/06 18:09:16;;;;;;;17.73;9.47;;;;;;;;;;5047601;28;20203;-80
2021/01/06 18:11:47;;;;;;;16.60;9.50;;;;;;;;;;5055308;28;20175;-80
2021/01/06 18:18:42;;;;;;;18.47;10.03;;;;;;;;;;5077554;28;20165;-80
2021/01/06 18:21:34;;;;;;;18.57;10.50;;;;;;;;;;5051312;28;20190;-79
2021/01/06 18:24:14;;;;;;;20.03;10.20;;;;;;;;;;5043331;28;20682;-80
2021/01/06 18:31:23;;;;;;;20.17;10.00;;;;;;;;;;5038571;28;20168;-79
2021/01/06 18:34:36;;;;;;;19.33;10.33;;;;;;;;;;5026901;28;20212;-80
2021/01/06 18:41:30;;;;;;;20.53;10.53;;;;;;;;;;5038217;28;20524;-80
2021/01/06 19:01:38;;;;;;;18.60;10.60;;;;;;;;;;4876657;29;20241;-80
2021/01/06 19:04:11;;;;;;;20.53;10.37;;;;;;;;;;4899159;29;20247;-78
2021/01/06 19:07:06;;;;;;;20.20;10.80;;;;;;;;;;4900434;29;20213;-79
2021/01/06 19:13:52;;;;;;;19.03;10.73;;;;;;;;;;4884840;29;20226;-80
2021/01/06 19:16:28;;;;;;;18.70;10.43;;;;;;;;;;4873079;29;20620;-80
2021/01/06 19:19:08;;;;;;;21.17;10.83;;;;;;;;;;4885368;29;20214;-80
2021/01/06 19:21:42;;;;;;;20.80;10.60;;;;;;;;;;4904459;29;20189;-80
2021/01/06 19:33:20;;;;;;;23.17;11.67;;;;;;;;;;5361178;23;20222;-80
2021/01/06 20:27:55;;;;;;;24.83;12.53;;;;;;;;;;5928149;23;20204;31
2021/01/06 20:31:04;;;;;;;21.33;10.90;;;;;;;;;;4857790;29;20221;-80
2021/01/06 20:40:04;;;;;;;21.30;11.45;;;;;;;;;;5927520;23;20171;31
2021/01/06 20:42:45;;;;;;;22.13;10.70;;;;;;;;;;4826791;29;20477;-80
2021/01/06 20:45:17;;;;;;;20.73;11.80;;;;;;;;;;4835678;29;20239;-79
2021/01/06 20:47:50;;;;;;;20.90;11.60;;;;;;;;;;4848650;29;20203;-79
2021/01/06 20:50:28;;;;;;;21.63;10.23;;;;;;;;;;4839368;29;20690;-80
2021/01/06 20:57:00;;;;;;;20.27;11.80;;;;;;;;;;5450571;23;20238;-80
2021/01/06 21:04:21;;;;;;;19.80;11.33;;;;;;;;;;4876289;29;20210;-80
2021/01/06 21:07:47;;;;;;;20.10;11.30;;;;;;;;;;4848045;29;20194;-80
2021/01/06 21:10:20;;;;;;;19.17;11.00;;;;;;;;;;4848307;29;20217;-80
2021/01/06 21:48:29;;;;;;;18.07;10.63;;;;;;;;;;5370441;23;20254;-80
2021/01/06 21:51:01;;;;;;;22.17;12.07;;;;;;;;;;4845650;29;20202;-81
2021/01/06 21:57:54;;;;;;;20.07;10.97;;;;;;;;;;4868663;29;20175;-80
2021/01/06 22:00:28;;;;;;;19.77;10.37;;;;;;;;;;4865633;29;20585;-80
2021/01/06 22:09:38;;;;;;;19.17;11.07;;;;;;;;;;5300552;23;20254;-80
2021/01/06 22:12:11;;;;;;;22.53;12.00;;;;;;;;;;4846392;29;20209;-80
2021/01/06 22:14:44;;;;;;;22.33;11.17;;;;;;;;;;4876745;29;20190;-80
2021/01/06 22:17:16;;;;;;;20.43;10.30;;;;;;;;;;4854021;29;20206;-80
2021/01/06 22:20:12;;;;;;;21.37;10.87;;;;;;;;;;4882432;29;20202;-80
2021/01/06 22:32:16;;;;;;;19.77;11.60;;;;;;;;;;4912058;23;20238;-81
2021/01/06 22:34:53;;;;;;;23.13;11.33;;;;;;;;;;4848587;29;20214;-80
2021/01/06 22:37:25;;;;;;;22.23;11.90;;;;;;;;;;4864628;29;20217;-80
2021/01/06 22:40:41;;;;;;;19.83;10.60;;;;;;;;;;4848365;29;20221;-81
2021/01/06 22:43:25;;;;;;;21.27;10.30;;;;;;;;;;4848700;29;20705;-81
2021/01/06 22:45:58;;;;;;;21.90;11.27;;;;;;;;;;4848569;29;20237;-81
2021/01/06 22:49:22;;;;;;;21.80;11.80;;;;;;;;;;4848888;29;20198;-81
2021/01/06 22:51:58;;;;;;;21.67;11.73;;;;;;;;;;4848288;29;20217;-81
2021/01/06 22:54:31;;;;;;;19.73;10.70;;;;;;;;;;4848190;29;20187;-81
2021/01/06 22:57:12;;;;;;;19.70;11.57;;;;;;;;;;4863549;29;20229;-81
2021/01/06 22:59:45;;;;;;;21.07;10.50;;;;;;;;;;4848040;29;20210;-81
2021/01/06 23:06:03;;;;;;;18.57;10.83;;;;;;;;;;4848118;29;20226;-81
2021/01/06 23:08:51;;;;;;;20.97;11.50;;;;;;;;;;4848739;29;20197;-81
2021/01/06 23:11:23;;;;;;;19.67;10.87;;;;;;;;;;4848717;29;20218;-81
2021/01/06 23:13:55;;;;;;;23.10;11.63;;;;;;;;;;4848506;29;20222;-81
2021/01/06 23:16:43;;;;;;;19.57;11.30;;;;;;;;;;4863829;29;20194;-81
2021/01/06 23:19:17;;;;;;;22.30;11.50;;;;;;;;;;4848244;29;20207;-81
2021/01/06 23:21:49;;;;;;;19.40;10.80;;;;;;;;;;4848143;29;20221;-80
2021/01/06 23:24:22;;;;;;;22.73;10.90;;;;;;;;;;4848358;29;20677;-80
2021/01/06 23:45:55;;;;;;;17.90;11.23;;;;;;;;;;4898441;24;20613;-81
2021/01/06 23:48:30;;;;;;;20.73;11.43;;;;;;;;;;4807568;29;20215;-81
2021/01/06 23:51:02;;;;;;;20.77;11.10;;;;;;;;;;4807575;29;20212;-81
